< < Back
Terminal Aerodrome Forecast


Current Version              Previous Versions:   1  2  3  4  5  6  7  8  9  

Terminal Aerodrome Forecast

811
FTUS42 KILM 250522
TAFILM
TAF
KILM 250522Z 2506/2606 19003KT P6SM SCT050
     FM251400 22007KT P6SM FEW040
     FM251800 18010KT P6SM SCT040 SCT250
     FM260200 22007KT P6SM SKC=

Latest METAR

197
SAUS70 KWBC 260600 RRC
MTRILM
METAR KILM 260553Z 22006KT 10SM CLR 26/23 A3004 RMK AO2 SLP173 T02610228
10289 20261 50000 PWINO


USA.gov is the U.S. government's official web portal to all federal, state and local government web resources and services.